Time;durP1;ratioP1;P1;durP2;ratioP2;P2;SDS_P1;SDS_P2;PMS_P1;PMS_P2;Temp;Humidity;BMP_temperature;BMP_pressure;BME280_temperature;BME280_humidity;BME280_pressure;Samples;Min_cycle;Max_cycle;Signal;HPM_P1;HPM_P2
2021/06/15 00:01:20;;;;;;;9.93;5.78;;;;;;;18.48;63.11;101440.41;5115264;28;20026;-71
2021/06/15 00:03:46;;;;;;;11.93;5.70;;;;;;;18.48;62.75;101445.63;5115276;28;20023;-70
2021/06/15 00:06:11;;;;;;;18.10;7.03;;;;;;;18.48;62.95;101450.84;5115295;28;20027;-71
2021/06/15 00:08:37;;;;;;;12.90;6.70;;;;;;;18.47;63.10;101449.97;5115342;28;20027;-71
2021/06/15 00:11:03;;;;;;;15.77;6.18;;;;;;;18.46;62.93;101449.91;5133793;28;20028;-71
2021/06/15 00:13:29;;;;;;;19.70;6.35;;;;;;;18.40;62.43;101443.66;5115515;28;20027;-70
2021/06/15 00:15:55;;;;;;;13.50;7.28;;;;;;;18.40;62.84;101448.88;5098198;28;20361;-71
2021/06/15 00:18:21;;;;;;;15.55;6.68;;;;;;;18.43;63.04;101442.88;5098094;28;20027;-71
2021/06/15 00:20:48;;;;;;;13.98;6.00;;;;;;;18.37;62.93;101442.72;5133695;28;20472;-71
2021/06/15 00:23:14;;;;;;;18.23;6.28;;;;;;;18.28;63.53;101445.91;5097947;28;20023;-71
2021/06/15 00:25:40;;;;;;;11.20;5.80;;;;;;;18.25;63.72;101438.91;5133555;28;20030;-71
2021/06/15 00:28:06;;;;;;;11.75;6.68;;;;;;;18.24;63.82;101426.69;5111488;28;20044;-70
2021/06/15 00:30:32;;;;;;;14.73;6.53;;;;;;;18.28;63.83;101438.09;5111773;28;20023;-70
2021/06/15 00:32:58;;;;;;;13.02;6.25;;;;;;;18.23;63.89;101439.69;5111945;28;20028;-71
2021/06/15 00:35:24;;;;;;;11.73;5.78;;;;;;;18.22;63.56;101448.34;5111780;28;20023;-70
2021/06/15 00:37:50;;;;;;;14.50;6.78;;;;;;;18.18;63.97;101443.88;5111603;28;20038;-70
2021/06/15 00:40:16;;;;;;;16.13;6.03;;;;;;;18.18;63.96;101449.97;5111657;28;20030;-70
2021/06/15 00:42:43;;;;;;;11.77;5.88;;;;;;;18.16;63.90;101442.94;5112882;28;20020;-70
2021/06/15 00:45:11;;;;;;;14.82;6.93;;;;;;;18.17;63.75;101444.69;5111458;28;20023;-70
2021/06/15 00:47:37;;;;;;;13.80;6.75;;;;;;;18.14;63.80;101449.81;5111339;28;20481;-70
2021/06/15 00:50:03;;;;;;;21.98;6.90;;;;;;;18.09;64.36;101437.53;5112827;28;20111;-70
2021/06/15 00:52:35;;;;;;;22.42;7.47;;;;;;;18.07;64.36;101444.41;5086613;28;20028;-70
2021/06/15 00:55:00;;;;;;;14.00;6.50;;;;;;;18.10;64.37;101443.66;5089566;28;20023;-70
2021/06/15 00:57:26;;;;;;;14.00;6.30;;;;;;;18.06;64.51;101447.88;5090282;28;20017;-70
2021/06/15 00:59:53;;;;;;;16.13;6.30;;;;;;;18.10;64.00;101447.13;5090463;28;20034;-70
2021/06/15 01:02:19;;;;;;;16.80;6.28;;;;;;;18.03;64.43;101458.19;5076060;28;20048;-71
2021/06/15 01:04:45;;;;;;;12.30;7.00;;;;;;;18.01;64.23;101453.75;5094779;28;20371;-71
2021/06/15 01:07:17;;;;;;;12.95;6.90;;;;;;;18.07;64.17;101460.06;5094831;28;20438;-70
2021/06/15 01:10:02;;;;;;;13.07;6.35;;;;;;;18.04;64.67;101459.97;5094676;28;20020;-71
2021/06/15 01:13:07;;;;;;;11.82;5.43;;;;;;;17.99;64.70;101461.50;5095783;28;20028;-70
2021/06/15 01:15:37;;;;;;;16.40;6.10;;;;;;;17.91;64.35;101458.66;5094320;28;20537;-71
2021/06/15 01:18:10;;;;;;;14.35;5.78;;;;;;;17.98;64.45;101454.53;5094428;28;20484;-70
2021/06/15 01:20:41;;;;;;;18.27;6.03;;;;;;;17.94;64.00;101453.53;5094420;28;20032;-70
2021/06/15 01:23:12;;;;;;;14.50;5.32;;;;;;;17.91;64.26;101455.16;5077450;28;20262;-70
2021/06/15 01:26:03;;;;;;;13.27;5.20;;;;;;;17.93;63.81;101440.47;5094404;28;20034;-69
2021/06/15 01:28:33;;;;;;;15.07;5.40;;;;;;;17.88;63.81;101447.25;5093817;28;20502;-71
2021/06/15 01:31:25;;;;;;;14.07;5.38;;;;;;;17.87;64.01;101451.56;5094182;28;20020;-70
2021/06/15 01:34:03;;;;;;;16.52;5.03;;;;;;;17.78;63.88;101441.75;5079369;28;20499;-70
2021/06/15 01:36:33;;;;;;;10.40;4.55;;;;;;;17.79;63.94;101438.31;5111092;28;20055;-70
2021/06/15 01:39:00;;;;;;;;;;;;;;;17.87;63.48;101446.34;5094424;28;20024;-71
2021/06/15 01:41:49;;;;;;;11.48;4.38;;;;;;;17.86;63.62;101438.50;5094000;28;19990;-70
2021/06/15 01:44:15;;;;;;;13.23;4.50;;;;;;;17.84;63.50;101450.59;5093963;28;20016;-70
2021/06/15 01:47:02;;;;;;;15.32;5.85;;;;;;;17.79;63.52;101443.53;5093991;28;20179;-70
2021/06/15 01:49:29;;;;;;;15.43;4.45;;;;;;;17.78;63.60;101440.84;5095000;28;20103;-71
2021/06/15 01:51:55;;;;;;;12.68;5.15;;;;;;;17.83;63.31;101438.41;5076926;28;20035;-71
2021/06/15 01:54:23;;;;;;;13.63;4.30;;;;;;;17.80;63.74;101441.78;5093547;28;20027;-70
2021/06/15 01:56:51;;;;;;;13.57;4.65;;;;;;;17.68;63.86;101455.31;5093930;28;20024;-71
2021/06/15 01:59:18;;;;;;;15.45;4.45;;;;;;;17.78;63.89;101452.16;5093863;28;20024;-71
2021/06/15 02:01:46;;;;;;;15.40;5.45;;;;;;;17.83;63.99;101454.03;5068724;28;20036;-70
2021/06/15 02:04:12;;;;;;;15.63;4.38;;;;;;;17.75;64.16;101457.28;5053371;28;20083;-71
2021/06/15 02:06:41;;;;;;;11.35;4.68;;;;;;;17.79;63.97;101468.66;5053217;28;20397;-70
2021/06/15 02:09:07;;;;;;;9.73;3.88;;;;;;;17.79;63.86;101474.78;5053314;28;20385;-70
2021/06/15 02:11:33;;;;;;;17.38;4.63;;;;;;;17.77;64.06;101471.25;5036348;28;20039;-71
2021/06/15 02:14:02;;;;;;;18.08;4.45;;;;;;;17.78;64.25;101483.44;5052230;28;20024;-71
2021/06/15 02:16:28;;;;;;;14.60;4.07;;;;;;;17.77;63.97;101481.66;5053128;28;20089;-70
2021/06/15 02:18:56;;;;;;;17.27;4.70;;;;;;;17.64;64.56;101479.50;5054216;28;20032;-69
2021/06/15 02:21:23;;;;;;;12.13;4.32;;;;;;;17.71;63.81;101491.88;5053152;28;20021;-70
2021/06/15 02:23:54;;;;;;;12.30;5.00;;;;;;;17.60;64.66;101493.25;5036350;28;20033;-69
2021/06/15 02:26:21;;;;;;;20.42;5.13;;;;;;;17.46;64.79;101496.25;5052978;28;20484;-69
2021/06/15 02:28:47;;;;;;;14.02;5.32;;;;;;;17.52;64.50;101488.66;5068357;28;20052;-70
2021/06/15 02:31:17;;;;;;;17.52;5.22;;;;;;;17.48;64.67;101497.19;5056331;28;20028;-69
2021/06/15 02:33:47;;;;;;;22.35;4.70;;;;;;;17.48;64.37;101494.56;5072849;28;20544;-70
2021/06/15 02:36:18;;;;;;;16.83;4.25;;;;;;;17.46;64.49;101490.16;5079071;28;20082;-69
2021/06/15 02:39:05;;;;;;;16.95;4.75;;;;;;;17.42;64.49;101504.78;5081575;28;20480;-69
2021/06/15 02:41:33;;;;;;;8.25;3.78;;;;;;;17.33;64.78;101509.66;5095582;28;20024;-69
2021/06/15 02:44:02;;;;;;;12.93;4.10;;;;;;;17.37;64.40;101516.75;5083161;28;20020;-69
2021/06/15 02:46:31;;;;;;;10.25;4.30;;;;;;;17.25;64.71;101509.41;5072069;28;20052;-69
2021/06/15 02:48:59;;;;;;;19.38;4.15;;;;;;;17.26;64.28;101507.69;5072286;28;20028;-69
2021/06/15 02:51:29;;;;;;;14.52;3.97;;;;;;;17.22;64.74;101517.97;5056042;28;20334;-69
2021/06/15 02:54:04;;;;;;;14.73;4.28;;;;;;;17.20;64.76;101511.84;5055688;28;20017;-69
2021/06/15 02:56:33;;;;;;;19.98;4.03;;;;;;;16.80;66.23;101525.97;5072281;28;20379;-69
2021/06/15 02:58:58;;;;;;;10.23;3.67;;;;;;;17.15;65.08;101525.53;5072523;28;20035;-69
2021/06/15 03:01:24;;;;;;;15.57;4.13;;;;;;;17.27;64.37;101522.47;5073535;28;20275;-69
2021/06/15 03:03:49;;;;;;;14.30;4.22;;;;;;;17.11;64.71;101529.72;5072250;28;20067;-69
2021/06/15 03:06:15;;;;;;;11.77;4.10;;;;;;;17.12;64.55;101536.72;5073409;28;20081;-69
2021/06/15 03:08:40;;;;;;;15.25;3.53;;;;;;;17.16;64.13;101538.59;5073252;28;20090;-69
2021/06/15 03:11:06;;;;;;;19.45;3.83;;;;;;;17.12;64.38;101544.50;5072105;28;20029;-68
2021/06/15 03:13:47;;;;;;;13.10;4.18;;;;;;;17.19;64.02;101543.03;5072207;28;20026;-69
2021/06/15 03:16:16;;;;;;;10.93;3.67;;;;;;;17.04;64.10;101549.47;5072016;28;20465;-69
2021/06/15 03:18:42;;;;;;;9.10;3.58;;;;;;;17.05;63.82;101534.72;5071778;28;20024;-69
2021/06/15 03:21:12;;;;;;;10.48;2.67;;;;;;;17.05;63.16;101545.13;5073167;28;20028;-69
2021/06/15 03:23:51;;;;;;;10.95;2.92;;;;;;;17.06;62.99;101554.69;5072021;28;20044;-69
2021/06/15 03:26:38;;;;;;;9.82;2.88;;;;;;;17.08;62.98;101555.66;5071883;28;20107;-68
2021/06/15 03:29:08;;;;;;;9.60;2.90;;;;;;;17.11;62.77;101560.97;5071673;28;20044;-69
2021/06/15 03:31:38;;;;;;;11.50;2.78;;;;;;;17.07;62.40;101565.19;5071848;28;20070;-69
2021/06/15 03:34:04;;;;;;;15.55;3.00;;;;;;;17.00;62.33;101562.28;5071845;28;20160;-69
2021/06/15 03:36:31;;;;;;;14.75;2.80;;;;;;;17.04;62.14;101546.84;5071845;28;20550;-69
2021/06/15 03:38:57;;;;;;;8.57;2.20;;;;;;;17.07;61.68;101559.06;5071697;28;20021;-69
2021/06/15 03:41:24;;;;;;;10.32;1.88;;;;;;;16.96;61.88;101549.94;5054910;28;20039;-68
2021/06/15 03:43:52;;;;;;;7.93;2.10;;;;;;;17.00;61.42;101557.06;5071629;28;20024;-69
2021/06/15 03:46:19;;;;;;;10.45;2.55;;;;;;;16.99;61.36;101561.41;5072771;28;20032;-69
2021/06/15 03:48:47;;;;;;;9.18;3.17;;;;;;;16.93;60.94;101554.22;5071636;28;20052;-69
2021/06/15 03:51:17;;;;;;;10.18;2.30;;;;;;;16.93;60.13;101551.59;5071616;28;20385;-69
2021/06/15 03:53:45;;;;;;;5.35;1.95;;;;;;;16.99;59.95;101552.69;5071552;28;20083;-69
2021/06/15 03:56:11;;;;;;;9.98;3.42;;;;;;;16.94;60.25;101550.78;5071665;28;20073;-69
2021/06/15 03:58:37;;;;;;;10.10;2.75;;;;;;;16.93;59.74;101556.81;5071500;28;20024;-69
2021/06/15 04:01:03;;;;;;;9.75;2.88;;;;;;;16.54;60.92;101562.25;5071484;28;20031;-68
2021/06/15 04:03:34;;;;;;;8.70;2.08;;;;;;;16.71;60.04;101564.63;5071478;28;20032;-69
2021/06/15 04:06:02;;;;;;;12.10;2.05;;;;;;;16.82;59.88;101558.13;5071422;28;20024;-69
2021/06/15 04:08:28;;;;;;;7.40;1.70;;;;;;;16.87;59.58;101556.59;5070752;28;20032;-69
2021/06/15 04:10:54;;;;;;;10.00;1.90;;;;;;;16.86;59.52;101560.00;5071388;28;20024;-69
2021/06/15 04:13:21;;;;;;;10.82;1.92;;;;;;;16.79;59.45;101569.28;5054629;28;20496;-69
2021/06/15 04:15:50;;;;;;;3.85;1.80;;;;;;;16.74;59.59;101578.63;5072629;28;20481;-69
2021/06/15 04:18:17;;;;;;;7.47;2.10;;;;;;;16.72;59.54;101592.41;5071330;28;20025;-69
2021/06/15 04:20:45;;;;;;;10.10;1.92;;;;;;;16.73;59.55;101594.19;5071141;28;20407;-69
2021/06/15 04:23:18;;;;;;;13.40;2.42;;;;;;;16.61;59.70;101585.09;5071339;28;20112;-69
2021/06/15 04:25:45;;;;;;;6.82;1.92;;;;;;;16.67;59.39;101583.56;5071318;28;20097;-69
2021/06/15 04:28:11;;;;;;;7.40;2.13;;;;;;;16.60;58.87;101596.31;5071024;28;20072;-68
2021/06/15 04:30:37;;;;;;;12.13;2.35;;;;;;;16.56;59.06;101607.44;5071219;28;20028;-69
2021/06/15 04:33:06;;;;;;;8.43;2.45;;;;;;;16.64;58.51;101616.41;5071183;28;20469;-69
2021/06/15 04:35:33;;;;;;;8.32;2.30;;;;;;;16.52;58.71;101604.63;5071328;28;20021;-69
2021/06/15 04:38:05;;;;;;;9.10;1.58;;;;;;;16.58;57.76;101600.56;5075530;28;20025;-69
2021/06/15 04:40:44;;;;;;;10.82;2.30;;;;;;;16.64;57.45;101602.50;5074893;28;20020;-69
2021/06/15 04:43:44;;;;;;;11.27;2.33;;;;;;;16.63;57.17;101612.03;5074883;28;20028;-68
2021/06/15 04:46:20;;;;;;;;;;;;;;;16.56;57.79;101622.13;5076503;28;20471;-68
2021/06/15 04:48:51;;;;;;;9.85;1.85;;;;;;;16.57;57.74;101618.69;5076061;28;19912;-69
2021/06/15 04:51:19;;;;;;;9.93;1.63;;;;;;;16.69;57.75;101619.19;5074703;28;20028;-69
2021/06/15 04:53:45;;;;;;;8.25;2.22;;;;;;;16.65;58.24;101622.50;5074727;28;20020;-69
2021/06/15 04:56:11;;;;;;;8.65;1.70;;;;;;;16.74;58.04;101619.38;5074702;28;20150;-69
2021/06/15 04:58:37;;;;;;;6.22;1.73;;;;;;;16.76;57.66;101621.19;5057880;28;20062;-69
2021/06/15 05:01:03;;;;;;;11.48;2.60;;;;;;;16.66;58.17;101621.66;5079859;28;20024;-69
2021/06/15 05:03:30;;;;;;;7.35;1.90;;;;;;;16.67;58.02;101613.03;5083549;28;20024;-69
2021/06/15 05:06:02;;;;;;;8.55;1.95;;;;;;;16.79;57.79;101620.44;5083937;28;20082;-68
2021/06/15 05:08:31;;;;;;;8.98;2.20;;;;;;;16.55;58.36;101621.25;5080596;28;20020;-69
2021/06/15 05:10:56;;;;;;;11.38;2.65;;;;;;;16.68;57.61;101613.94;5094637;28;20101;-68
2021/06/15 05:13:22;;;;;;;13.10;1.90;;;;;;;16.80;57.29;101617.03;5094590;28;20051;-69
2021/06/15 05:15:49;;;;;;;12.25;1.98;;;;;;;16.71;57.44;101624.47;5094650;28;20035;-69
2021/06/15 05:18:15;;;;;;;6.85;1.80;;;;;;;16.76;57.54;101617.72;5094434;28;20020;-69
2021/06/15 05:20:42;;;;;;;8.10;2.20;;;;;;;16.89;57.43;101609.56;5094582;28;20022;-69
2021/06/15 05:23:15;;;;;;;10.93;1.80;;;;;;;16.89;57.29;101606.06;5090600;28;20020;-69
2021/06/15 05:25:41;;;;;;;8.95;2.00;;;;;;;16.98;57.88;101600.38;5067178;28;20033;-69
2021/06/15 05:28:07;;;;;;;12.25;2.33;;;;;;;16.92;57.62;101611.38;5083516;28;20056;-69
2021/06/15 05:30:33;;;;;;;4.55;1.65;;;;;;;16.85;57.39;101619.78;5085325;28;20028;-69
2021/06/15 05:32:59;;;;;;;10.57;1.80;;;;;;;17.01;57.31;101626.50;5084556;28;20032;-69
2021/06/15 05:35:25;;;;;;;7.50;1.95;;;;;;;17.01;56.93;101626.50;5084254;28;20052;-69
2021/06/15 05:37:51;;;;;;;6.18;1.50;;;;;;;16.91;56.99;101636.53;5088055;28;20073;-69
2021/06/15 05:40:48;;;;;;;11.02;2.25;;;;;;;17.00;56.80;101635.16;5089770;28;20415;-69
2021/06/15 05:43:14;;;;;;;13.30;2.05;;;;;;;16.99;56.67;101633.38;5089730;28;20023;-69
2021/06/15 05:45:40;;;;;;;16.98;2.10;;;;;;;16.88;56.69;101646.81;5093232;28;20020;-69
2021/06/15 05:48:06;;;;;;;22.70;3.53;;;;;;;17.07;55.97;101642.38;5088401;28;20112;-69
2021/06/15 05:50:32;;;;;;;10.48;1.85;;;;;;;17.11;56.37;101644.25;5090751;28;20428;-69
2021/06/15 05:52:58;;;;;;;7.07;1.95;;;;;;;17.10;56.21;101647.69;5083166;28;20302;-70
2021/06/15 05:55:23;;;;;;;6.05;1.80;;;;;;;17.23;55.68;101654.25;5092563;28;20046;-69
2021/06/15 05:57:49;;;;;;;4.15;1.67;;;;;;;17.43;55.27;101662.81;5092268;28;20461;-68
2021/06/15 06:00:15;;;;;;;8.35;2.03;;;;;;;17.66;54.73;101668.00;5092245;28;20397;-68
2021/06/15 06:02:40;;;;;;;10.63;1.90;;;;;;;17.74;54.61;101653.53;5092390;28;20028;-69
2021/06/15 06:10:25;;;;;;;6.88;1.60;;;;;;;17.97;53.24;101661.25;5087599;28;20069;-67
2021/06/15 06:12:51;;;;;;;9.63;2.15;;;;;;;17.85;52.77;101650.41;5087990;28;20028;-68
2021/06/15 06:15:16;;;;;;;13.65;2.13;;;;;;;17.84;53.60;101659.06;5086448;28;20024;-69
2021/06/15 06:17:42;;;;;;;13.02;2.00;;;;;;;17.70;53.10;101666.38;5086312;28;20023;-68
2021/06/15 06:20:10;;;;;;;7.18;1.67;;;;;;;17.10;54.37;101678.06;5086145;28;20024;-68
2021/06/15 06:22:36;;;;;;;7.95;2.35;;;;;;;17.37;54.53;101684.31;5083302;28;20025;-68
2021/06/15 06:25:06;;;;;;;7.60;1.63;;;;;;;17.66;52.98;101675.81;5086391;28;20430;-69
2021/06/15 06:27:32;;;;;;;11.65;1.92;;;;;;;17.91;52.66;101692.31;5089351;28;20040;-69
2021/06/15 06:29:57;;;;;;;8.93;1.67;;;;;;;17.79;52.42;101678.03;5102130;28;20031;-69
2021/06/15 06:32:23;;;;;;;8.05;1.60;;;;;;;17.96;52.65;101675.13;5101774;28;20020;-68
2021/06/15 06:34:49;;;;;;;5.10;1.10;;;;;;;18.33;51.75;101676.44;5102303;28;20494;-68
2021/06/15 06:37:14;;;;;;;5.63;1.70;;;;;;;18.61;50.56;101672.16;5096760;28;20024;-70
2021/06/15 06:39:41;;;;;;;9.23;1.50;;;;;;;19.10;49.82;101682.38;5099777;28;20020;-68
2021/06/15 06:42:08;;;;;;;11.98;1.30;;;;;;;19.09;48.95;101685.84;5100726;28;20020;-68
2021/06/15 06:44:34;;;;;;;11.82;2.03;;;;;;;19.05;48.10;101689.19;5100592;28;20054;-68
2021/06/15 06:46:59;;;;;;;9.30;1.70;;;;;;;19.17;47.59;101694.78;5102331;28;20047;-69
2021/06/15 06:49:27;;;;;;;6.90;2.03;;;;;;;19.03;47.33;101701.31;5097989;28;20020;-68
2021/06/15 06:51:52;;;;;;;8.73;1.65;;;;;;;19.22;47.20;101703.66;5083622;28;20039;-68
2021/06/15 06:54:18;;;;;;;4.88;1.23;;;;;;;19.11;46.23;101705.03;5100223;28;20019;-69
2021/06/15 06:56:43;;;;;;;8.75;2.00;;;;;;;19.06;47.21;101711.84;5100893;28;20098;-69
2021/06/15 06:59:09;;;;;;;4.88;1.20;;;;;;;19.21;46.51;101707.09;5099680;28;20396;-68
2021/06/15 07:01:34;;;;;;;12.75;2.00;;;;;;;19.38;46.86;101709.34;5098854;28;20066;-69
2021/06/15 07:04:00;;;;;;;5.47;1.50;;;;;;;19.56;46.31;101709.00;5101258;28;20027;-68
2021/06/15 07:06:25;;;;;;;5.68;1.50;;;;;;;19.54;46.13;101711.56;5103268;28;20047;-69
2021/06/15 07:08:50;;;;;;;4.82;1.30;;;;;;;19.48;44.59;101713.97;5101542;28;20020;-68
2021/06/15 07:11:16;;;;;;;5.55;0.90;;;;;;;19.24;44.45;101712.41;5101679;28;20040;-68
2021/06/15 07:13:41;;;;;;;4.47;1.05;;;;;;;19.43;44.43;101723.41;5104051;28;20024;-68
2021/06/15 07:16:07;;;;;;;4.22;1.00;;;;;;;19.59;44.64;101724.75;5103793;28;20076;-69
2021/06/15 07:18:36;;;;;;;6.80;1.35;;;;;;;19.54;45.19;101711.56;5102114;28;20154;-69
2021/06/15 07:21:02;;;;;;;10.77;1.55;;;;;;;19.42;44.76;101719.03;5101904;28;20015;-69
2021/06/15 07:23:28;;;;;;;6.97;1.02;;;;;;;19.47;43.64;101725.28;5106498;28;20031;-69
2021/06/15 07:25:53;;;;;;;3.55;1.00;;;;;;;19.55;42.74;101734.22;5105833;28;20016;-69
2021/06/15 07:28:19;;;;;;;10.38;1.17;;;;;;;19.32;43.57;101730.03;5081301;28;20091;-68
2021/06/15 07:34:06;;;;;;;6.30;1.05;;;;;;;19.79;44.15;101722.72;5087246;28;20433;-68
2021/06/15 07:36:31;;;;;;;8.90;0.93;;;;;;;19.93;43.08;101724.88;5091291;28;20047;-69
2021/06/15 07:38:57;;;;;;;6.45;1.50;;;;;;;20.06;43.39;101721.75;5072881;28;20027;-69
2021/06/15 07:41:22;;;;;;;8.38;1.80;;;;;;;19.83;43.66;101723.69;5079671;28;20032;-68
2021/06/15 07:43:48;;;;;;;7.43;1.10;;;;;;;20.23;43.42;101723.94;5078931;28;20032;-68
2021/06/15 07:46:15;;;;;;;3.80;1.17;;;;;;;20.40;43.51;101722.63;5082238;28;20048;-69
2021/06/15 07:48:41;;;;;;;8.80;1.33;;;;;;;20.29;42.85;101718.88;5078707;28;20032;-69
2021/06/15 07:51:07;;;;;;;4.65;1.20;;;;;;;20.58;42.12;101716.09;5070884;28;20024;-69
2021/06/15 07:53:32;;;;;;;8.48;1.58;;;;;;;20.54;42.08;101719.50;5070575;28;20038;-69
2021/06/15 07:55:58;;;;;;;5.28;1.23;;;;;;;20.33;42.21;101720.72;5071299;28;20024;-69
2021/06/15 07:58:23;;;;;;;8.93;1.38;;;;;;;20.32;42.24;101718.06;5072893;28;20021;-69
2021/06/15 08:00:49;;;;;;;8.00;1.52;;;;;;;20.83;43.09;101722.00;5071534;28;20024;-69
2021/06/15 08:03:14;;;;;;;7.10;1.00;;;;;;;21.13;41.49;101726.16;5083944;28;20038;-69
2021/06/15 08:05:39;;;;;;;7.53;1.08;;;;;;;20.36;41.78;101726.03;5082426;28;20025;-69
2021/06/15 08:08:05;;;;;;;9.73;1.50;;;;;;;20.64;40.73;101721.47;5065749;28;20020;-69
2021/06/15 08:10:30;;;;;;;7.95;1.10;;;;;;;20.86;41.65;101722.06;5092736;28;20016;-70
2021/06/15 08:12:58;;;;;;;5.10;1.13;;;;;;;20.79;41.89;101725.38;5095229;28;20464;-69
2021/06/15 08:15:24;;;;;;;9.63;1.30;;;;;;;20.82;42.17;101721.09;5095907;28;20362;-69
2021/06/15 08:17:49;;;;;;;7.10;1.42;;;;;;;20.76;41.77;101725.28;5095527;28;20436;-68
2021/06/15 08:20:16;;;;;;;8.90;1.98;;;;;;;20.59;41.91;101725.72;5095520;28;20036;-68
2021/06/15 08:23:22;;;;;;;6.07;1.92;;;;;;;20.44;42.75;101724.50;5081593;28;20036;-71
2021/06/15 08:25:47;;;;;;;5.30;1.17;;;;;;;20.11;43.10;101730.63;5085817;28;20025;-70
2021/06/15 08:28:13;;;;;;;8.35;1.33;;;;;;;20.18;43.28;101730.78;5082998;28;20049;-70
2021/06/15 08:30:39;;;;;;;3.95;1.33;;;;;;;20.46;42.69;101721.03;5085042;28;20026;-70
2021/06/15 08:33:05;;;;;;;9.65;2.13;;;;;;;20.61;42.51;101731.88;5083668;28;20396;-68
2021/06/15 08:35:31;;;;;;;5.72;1.20;;;;;;;20.60;43.44;101724.88;5086022;28;20031;-68
2021/06/15 08:37:56;;;;;;;8.18;1.27;;;;;;;21.17;42.10;101728.00;5082033;28;20034;-68
2021/06/15 08:40:22;;;;;;;7.25;1.20;;;;;;;21.43;41.23;101731.22;5074809;28;20040;-69
2021/06/15 08:42:48;;;;;;;11.02;1.50;;;;;;;21.55;39.93;101730.56;5074980;28;20031;-69
2021/06/15 08:45:15;;;;;;;4.90;1.50;;;;;;;21.54;39.70;101723.56;5076085;28;20021;-69
2021/06/15 08:47:47;;;;;;;9.25;1.50;;;;;;;21.41;40.36;101724.16;5074394;28;20369;-69
2021/06/15 08:50:18;;;;;;;7.00;1.60;;;;;;;21.12;40.47;101724.41;5074641;28;20119;-70
2021/06/15 08:52:44;;;;;;;14.82;1.63;;;;;;;20.78;41.74;101720.97;5074547;28;21342;-71
2021/06/15 08:55:11;;;;;;;9.45;1.70;;;;;;;20.75;42.72;101723.50;5083863;28;20021;-69
2021/06/15 08:57:38;;;;;;;7.38;1.60;;;;;;;20.68;42.82;101728.59;5080357;28;20017;-70
2021/06/15 09:00:06;;;;;;;9.65;1.92;;;;;;;20.59;41.80;101728.34;5075779;28;20024;-69
2021/06/15 09:02:40;;;;;;;6.13;1.35;;;;;;;20.92;40.43;101724.84;5075304;28;20020;-69
2021/06/15 09:05:06;;;;;;;9.98;1.30;;;;;;;21.19;38.68;101731.53;5074269;28;20024;-69
2021/06/15 09:08:00;;;;;;;5.43;1.13;;;;;;;21.73;38.58;101729.22;5075675;28;20086;-68
2021/06/15 09:10:27;;;;;;;6.72;1.25;;;;;;;22.39;36.85;101721.72;5063593;28;20108;-70
2021/06/15 09:12:53;;;;;;;9.63;1.48;;;;;;;22.81;36.61;101721.56;5074485;28;20056;-68
2021/06/15 09:15:20;;;;;;;6.80;1.17;;;;;;;23.02;36.31;101723.63;5074088;28;20457;-68
2021/06/15 09:17:47;;;;;;;7.05;1.58;;;;;;;23.11;35.93;101728.13;5075175;28;20480;-68
2021/06/15 09:20:22;;;;;;;8.00;1.30;;;;;;;22.69;36.90;101738.88;5073727;28;20032;-68
2021/06/15 09:23:01;;;;;;;6.55;1.20;;;;;;;22.54;36.84;101739.53;5074072;28;20053;-68
2021/06/15 09:25:28;;;;;;;12.95;1.48;;;;;;;22.01;37.31;101740.28;5056386;28;20035;-68
2021/06/15 09:27:54;;;;;;;9.75;1.67;;;;;;;22.04;38.08;101740.34;5081730;28;20489;-69
2021/06/15 09:33:48;;;;;;;6.13;1.90;;;;;;;25.29;32.77;101726.84;5090591;28;20077;-69
2021/06/15 09:36:13;;;;;;;7.50;1.98;;;;;;;24.66;32.94;101724.63;5092406;28;20077;-70
2021/06/15 09:38:58;;;;;;;11.47;1.43;;;;;;;23.89;34.87;101737.94;5093827;28;20032;-70
2021/06/15 09:41:40;;;;;;;8.63;1.65;;;;;;;23.08;35.19;101728.09;5081281;28;20793;-70
2021/06/15 09:44:26;;;;;;;5.15;1.45;;;;;;;22.39;36.98;101737.47;5055834;28;20017;-70
2021/06/15 09:46:53;;;;;;;6.45;1.30;;;;;;;22.64;37.09;101732.66;5072520;28;20024;-70
2021/06/15 09:49:42;;;;;;;4.65;0.88;;;;;;;24.32;32.97;101724.38;5055783;28;20166;-70
2021/06/15 09:52:24;;;;;;;6.30;1.20;;;;;;;26.11;30.13;101734.19;5089316;28;20069;-70
2021/06/15 09:54:55;;;;;;;4.45;1.05;;;;;;;27.63;27.28;101725.25;5092843;28;20051;-70
2021/06/15 09:57:37;;;;;;;3.83;0.95;;;;;;;28.30;25.16;101725.75;5092785;28;20027;-70
2021/06/15 10:00:20;;;;;;;3.70;1.02;;;;;;;27.50;26.70;101724.44;5092858;28;20024;-70
2021/06/15 10:02:48;;;;;;;4.10;1.20;;;;;;;26.89;27.58;101723.69;5092817;28;20024;-70
2021/06/15 10:05:24;;;;;;;7.70;1.27;;;;;;;29.21;24.51;101715.19;5094259;28;20107;-70
2021/06/15 10:07:49;;;;;;;6.97;1.10;;;;;;;30.92;23.15;101723.28;5094248;28;20028;-70
2021/06/15 10:10:20;;;;;;;4.95;1.38;;;;;;;32.33;20.18;101723.81;5094591;28;20036;-70
2021/06/15 10:12:47;;;;;;;6.07;1.10;;;;;;;31.56;20.58;101720.25;5092913;28;20024;-70
2021/06/15 10:15:13;;;;;;;4.80;1.10;;;;;;;31.29;21.58;101719.94;5093874;28;20095;-70
2021/06/15 10:17:39;;;;;;;6.03;0.80;;;;;;;29.68;22.82;101721.69;5081623;28;20023;-70
2021/06/15 10:20:05;;;;;;;5.60;0.98;;;;;;;27.95;24.40;101718.91;5064475;28;20119;-70
2021/06/15 10:22:31;;;;;;;5.53;1.08;;;;;;;27.61;25.38;101719.97;5080309;28;20017;-70
2021/06/15 10:28:20;;;;;;;5.65;0.75;;;;;;;27.47;25.00;101716.47;5094721;28;20109;-70
2021/06/15 10:30:47;;;;;;;2.95;0.93;;;;;;;26.35;26.09;101717.53;5111117;28;20430;-68
2021/06/15 10:33:25;;;;;;;5.43;1.15;;;;;;;26.96;26.07;101722.78;5094683;28;20030;-68
2021/06/15 10:35:55;;;;;;;6.20;1.15;;;;;;;26.77;26.91;101714.88;5078838;28;20019;-68
2021/06/15 10:38:29;;;;;;;6.72;1.10;;;;;;;26.58;27.46;101713.13;5095553;28;20027;-68
2021/06/15 10:40:56;;;;;;;3.20;0.98;;;;;;;26.45;27.24;101718.41;5092977;28;20023;-69
2021/06/15 10:43:31;;;;;;;4.07;0.90;;;;;;;25.75;28.49;101720.03;5113850;28;20034;-69
2021/06/15 10:45:59;;;;;;;6.10;1.30;;;;;;;25.21;28.99;101710.13;5093154;28;20175;-69
2021/06/15 10:48:31;;;;;;;3.60;1.00;;;;;;;24.51;30.23;101705.22;5095141;28;20497;-68
2021/06/15 10:50:59;;;;;;;6.82;1.08;;;;;;;25.89;28.57;101713.03;5093092;28;20445;-69
2021/06/15 10:54:21;;;;;;;3.70;0.77;;;;;;;27.47;25.57;101712.03;5095313;28;20115;-69
2021/06/15 10:57:13;;;;;;;4.22;1.10;;;;;;;29.08;24.12;101709.16;5103907;28;20080;-68
2021/06/15 10:59:57;;;;;;;4.57;1.00;;;;;;;30.06;22.28;101705.25;5105823;28;20015;-68
2021/06/15 11:02:25;;;;;;;5.38;0.93;;;;;;;29.79;22.90;101708.28;5091643;28;20088;-69
2021/06/15 11:04:51;;;;;;;4.50;1.00;;;;;;;28.09;25.50;101708.19;5113149;28;20030;-68
2021/06/15 11:07:33;;;;;;;2.63;0.70;;;;;;;28.84;24.65;101706.72;5094981;28;20027;-68
2021/06/15 11:09:59;;;;;;;4.50;1.00;;;;;;;30.32;22.39;101712.78;5092397;28;20032;-68
2021/06/15 11:12:24;;;;;;;4.85;1.23;;;;;;;29.24;23.94;101701.91;5077940;28;20039;-68
2021/06/15 11:15:13;;;;;;;4.85;1.08;;;;;;;28.02;25.10;101714.44;5113162;28;20020;-68
2021/06/15 11:17:50;;;;;;;4.03;0.95;;;;;;;28.02;24.90;101693.25;5092910;28;20015;-68
2021/06/15 11:20:34;;;;;;;5.40;1.27;;;;;;;27.25;25.69;101700.69;5092587;28;20054;-68
2021/06/15 11:23:17;;;;;;;4.75;1.33;;;;;;;25.66;28.94;101703.28;5095016;28;20019;-68
2021/06/15 11:25:54;;;;;;;6.15;1.40;;;;;;;25.57;29.23;101705.03;5092042;28;20023;-68
2021/06/15 11:28:47;;;;;;;6.80;2.05;;;;;;;24.61;30.49;101697.38;5091159;28;20044;-68
2021/06/15 11:31:19;;;;;;;9.32;1.20;;;;;;;24.71;30.27;101701.84;5086560;28;20058;-68
2021/06/15 11:34:16;;;;;;;12.93;1.65;;;;;;;24.80;29.84;101701.06;5111572;28;20019;-68
2021/06/15 11:36:53;;;;;;;3.85;1.05;;;;;;;24.74;29.79;101701.91;5092002;28;20064;-68
2021/06/15 11:39:21;;;;;;;5.38;1.30;;;;;;;25.04;29.73;101700.38;5091227;28;20047;-68
2021/06/15 11:42:07;;;;;;;7.40;1.30;;;;;;;24.88;30.06;101703.75;5111599;28;20051;-68
2021/06/15 11:44:56;;;;;;;8.63;1.10;;;;;;;24.66;31.00;101698.31;5110889;28;20030;-69
2021/06/15 11:47:36;;;;;;;5.18;1.15;;;;;;;24.47;30.15;101698.16;5108861;28;20031;-69
2021/06/15 11:50:06;;;;;;;8.00;1.20;;;;;;;24.30;32.09;101694.50;5109920;28;20031;-68